Time;durP1;ratioP1;P1;durP2;ratioP2;P2;SDS_P1;SDS_P2;PMS_P1;PMS_P2;Temp;Humidity;BMP_temperature;BMP_pressure;BME280_temperature;BME280_humidity;BME280_pressure;Samples;Min_cycle;Max_cycle;Signal;HPM_P1;HPM_P2
2023/01/04 00:00:05;;;;;;;4.72;1.15;;;9.70;91.10;;;;;;5134236;28;20031;-78
2023/01/04 00:02:31;;;;;;;4.65;1.30;;;9.60;91.40;;;;;;5135124;28;20023;-77
2023/01/04 00:04:57;;;;;;;3.90;1.10;;;9.60;91.70;;;;;;5135037;28;20028;-78
2023/01/04 00:07:22;;;;;;;1.52;0.82;;;9.60;92.20;;;;;;5134035;28;20031;-77
2023/01/04 00:09:48;;;;;;;5.97;1.05;;;9.50;92.30;;;;;;5133890;28;20036;-77
2023/01/04 00:12:14;;;;;;;1.35;0.95;;;9.50;92.60;;;;;;5134116;28;20024;-77
2023/01/04 00:14:39;;;;;;;2.70;0.98;;;9.50;92.70;;;;;;5133868;28;20058;-77
2023/01/04 00:17:05;;;;;;;2.15;1.30;;;9.50;92.90;;;;;;5133825;28;20028;-77
2023/01/04 00:19:31;;;;;;;4.30;0.70;;;9.40;93.00;;;;;;5133806;28;20034;-77
2023/01/04 00:21:56;;;;;;;5.07;1.58;;;9.40;93.30;;;;;;5116949;28;20098;-77
2023/01/04 00:24:22;;;;;;;3.40;1.05;;;9.50;93.40;;;;;;5116798;28;20032;-78
2023/01/04 00:26:47;;;;;;;1.80;1.20;;;9.40;93.60;;;;;;5133966;28;20052;-77
2023/01/04 00:29:13;;;;;;;10.90;1.73;;;9.40;93.70;;;;;;5134491;28;20031;-77
2023/01/04 00:31:39;;;;;;;3.17;1.20;;;9.40;93.80;;;;;;5133719;28;20035;-77
2023/01/04 00:34:05;;;;;;;3.97;0.90;;;9.50;94.00;;;;;;5116493;28;20020;-77
2023/01/04 00:36:32;;;;;;;5.88;1.23;;;9.40;94.20;;;;;;5133575;28;20087;-78
2023/01/04 00:39:13;;;;;;;5.07;1.10;;;9.40;94.40;;;;;;5134496;28;20011;-77
2023/01/04 00:41:44;;;;;;;2.58;1.25;;;9.40;94.40;;;;;;5134491;28;20037;-77
2023/01/04 00:44:11;;;;;;;2.70;1.42;;;9.40;94.70;;;;;;5134407;28;20051;-78
2023/01/04 00:46:37;;;;;;;2.83;1.20;;;9.40;94.80;;;;;;5133379;28;20057;-77
2023/01/04 00:49:04;;;;;;;2.13;0.90;;;9.30;95.00;;;;;;5133350;28;20047;-77
2023/01/04 00:51:31;;;;;;;3.03;1.23;;;9.30;95.20;;;;;;5134282;28;20030;-77
2023/01/04 00:53:59;;;;;;;5.53;1.52;;;9.40;95.30;;;;;;5133251;28;20027;-77
2023/01/04 00:56:24;;;;;;;4.60;1.23;;;9.40;95.30;;;;;;5134225;28;20023;-78
2023/01/04 00:58:54;;;;;;;2.00;1.00;;;9.40;95.40;;;;;;5099357;28;20020;-77
2023/01/04 01:01:20;;;;;;;4.60;1.20;;;9.40;95.50;;;;;;5133235;28;20031;-78
2023/01/04 01:03:46;;;;;;;3.08;1.38;;;9.40;95.60;;;;;;5133063;28;20043;-77
2023/01/04 01:06:12;;;;;;;3.10;1.23;;;9.40;95.80;;;;;;5134116;28;20080;-77
2023/01/04 01:08:38;;;;;;;2.63;1.35;;;9.40;96.00;;;;;;5134013;28;20016;-77
2023/01/04 01:11:06;;;;;;;4.50;1.60;;;9.40;96.10;;;;;;5116166;28;20038;-77
2023/01/04 01:13:33;;;;;;;1.98;1.05;;;9.40;96.20;;;;;;5133993;28;20093;-77
2023/01/04 01:16:11;;;;;;;2.30;0.82;;;9.40;96.20;;;;;;5134014;28;20485;-77
2023/01/04 01:18:39;;;;;;;1.95;0.75;;;9.40;96.70;;;;;;5133012;28;20164;-77
2023/01/04 01:21:05;;;;;;;5.32;1.33;;;9.40;96.40;;;;;;5133861;28;20026;-76
2023/01/04 01:23:31;;;;;;;2.72;0.93;;;9.40;96.40;;;;;;5132970;28;20020;-77
2023/01/04 01:26:01;;;;;;;2.90;1.00;;;9.40;96.50;;;;;;5133724;28;20054;-78
2023/01/04 01:28:27;;;;;;;7.55;1.13;;;9.40;96.70;;;;;;5132941;28;20053;-77
2023/01/04 01:30:53;;;;;;;2.40;0.80;;;9.40;96.70;;;;;;5133846;28;20032;-77
2023/01/04 01:33:19;;;;;;;3.42;1.20;;;9.50;96.80;;;;;;5133037;28;20034;-77
2023/01/04 01:35:44;;;;;;;4.70;1.55;;;9.50;96.80;;;;;;5132878;28;20115;-77
2023/01/04 01:38:10;;;;;;;2.65;0.88;;;9.50;96.80;;;;;;5134309;28;20032;-77
2023/01/04 01:40:40;;;;;;;2.22;1.00;;;9.50;96.90;;;;;;5137853;28;20031;-77
2023/01/04 01:43:19;;;;;;;2.67;1.10;;;9.50;97.00;;;;;;5137945;28;20024;-78
2023/01/04 01:45:47;;;;;;;2.88;1.05;;;9.50;97.10;;;;;;5137910;28;20061;-77
2023/01/04 01:48:26;;;;;;;2.50;0.77;;;9.50;97.10;;;;;;5136754;28;20045;-77
2023/01/04 01:50:59;;;;;;;2.03;1.00;;;9.60;97.20;;;;;;5137936;28;20024;-77
2023/01/04 01:53:27;;;;;;;2.40;0.75;;;9.50;97.20;;;;;;5137694;28;20027;-77
2023/01/04 01:55:54;;;;;;;1.88;0.80;;;9.60;97.30;;;;;;5137580;28;20039;-78
2023/01/04 01:58:34;;;;;;;0.93;0.52;;;9.60;97.40;;;;;;5137621;28;20088;-77
2023/01/04 02:01:00;;;;;;;1.08;0.73;;;9.60;97.30;;;;;;5136528;28;20024;-77
2023/01/04 02:03:31;;;;;;;1.40;0.70;;;9.60;97.30;;;;;;5136488;28;20023;-77
2023/01/04 02:06:00;;;;;;;1.00;0.90;;;9.60;97.30;;;;;;5137528;28;20106;-78
2023/01/04 02:08:26;;;;;;;1.70;0.90;;;9.70;97.40;;;;;;5137331;28;20027;-78
2023/01/04 02:10:52;;;;;;;1.23;0.88;;;9.70;97.40;;;;;;5136491;28;20035;-77
2023/01/04 02:13:22;;;;;;;1.13;0.70;;;9.70;97.50;;;;;;5137296;28;20083;-78
2023/01/04 02:16:09;;;;;;;3.78;1.10;;;9.70;97.60;;;;;;5137399;28;20019;-78
2023/01/04 02:19:05;;;;;;;4.28;0.90;;;9.70;97.60;;;;;;5136236;28;20028;-77
2023/01/04 02:22:18;;;;;;;0.73;0.70;;;9.70;97.70;;;;;;5137208;28;20030;-77
2023/01/04 02:25:08;;;;;;;1.52;0.80;;;9.70;97.80;;;;;;5091863;28;20035;-78
2023/01/04 02:27:46;;;;;;;1.55;1.05;;;9.70;97.90;;;;;;5137240;28;20033;-77
2023/01/04 02:30:43;;;;;;;1.83;1.02;;;9.70;98.00;;;;;;5135992;28;20053;-77
2023/01/04 02:33:31;;;;;;;1.92;0.98;;;9.70;98.10;;;;;;5136954;28;20047;-77
2023/01/04 02:36:02;;;;;;;2.30;0.95;;;9.70;98.10;;;;;;5135865;28;20035;-77
2023/01/04 02:38:31;;;;;;;2.20;0.82;;;9.70;98.10;;;;;;5136870;28;20058;-77
2023/01/04 02:41:08;;;;;;;1.83;1.10;;;9.70;98.20;;;;;;5135772;28;20019;-78
2023/01/04 02:47:00;;;;;;;1.23;0.90;;;9.80;98.30;;;;;;5136919;28;20064;-77
2023/01/04 02:52:11;;;;;;;1.52;0.90;;;9.80;98.30;;;;;;5135801;28;20058;-77
2023/01/04 02:54:38;;;;;;;0.68;0.60;;;9.80;98.30;;;;;;5136528;28;20035;-77
2023/01/04 02:57:15;;;;;;;1.83;1.00;;;9.80;98.40;;;;;;5136472;28;20019;-77
2023/01/04 02:59:59;;;;;;;1.65;1.02;;;9.80;98.40;;;;;;5136521;28;20020;-77
2023/01/04 03:08:55;;;;;;;1.50;1.10;;;9.90;98.30;;;;;;5136391;28;20050;-78
2023/01/04 03:14:19;;;;;;;1.15;0.80;;;10.00;98.30;;;;;;5136213;28;20030;-77
2023/01/04 03:16:47;;;;;;;3.33;1.33;;;10.00;98.20;;;;;;5136128;28;20085;-79
2023/01/04 03:19:50;;;;;;;2.67;1.25;;;10.00;98.20;;;;;;5134926;28;20054;-77
2023/01/04 03:22:02;;;;;;;1.08;0.73;;;10.00;98.20;;;;;;5135816;28;20036;-77
2023/01/04 03:36:05;;;;;;;1.20;0.90;;;10.10;98.10;;;;;;5135962;28;20030;-78
2023/01/04 03:50:22;;;;;;;1.48;0.98;;;10.20;98.20;;;;;;5135535;28;20047;-79
2023/01/04 03:52:50;;;;;;;1.92;1.27;;;10.30;98.10;;;;;;5135446;28;20034;-78
2023/01/04 03:55:17;;;;;;;1.60;1.00;;;10.30;98.10;;;;;;5135341;28;20053;-78
2023/01/04 03:57:45;;;;;;;1.30;0.98;;;10.30;98.10;;;;;;5134238;28;20028;-78
2023/01/04 04:00:14;;;;;;;1.33;0.70;;;10.30;98.10;;;;;;5134111;28;20020;-78
2023/01/04 04:02:41;;;;;;;1.77;1.23;;;10.30;98.10;;;;;;5134067;28;20035;-78
2023/01/04 04:10:37;;;;;;;2.15;1.67;;;10.40;98.10;;;;;;5134341;28;20047;-78
2023/01/04 04:13:02;;;;;;;2.33;1.70;;;10.40;98.00;;;;;;5116965;28;20028;-79
2023/01/04 04:15:28;;;;;;;2.63;1.17;;;10.50;98.00;;;;;;5133721;28;20074;-78
2023/01/04 04:17:54;;;;;;;1.20;1.00;;;10.50;97.90;;;;;;5133961;28;20042;-77
2023/01/04 04:20:19;;;;;;;1.38;1.02;;;10.50;97.80;;;;;;5134748;28;20032;-78
2023/01/04 04:22:45;;;;;;;2.42;1.77;;;10.50;97.90;;;;;;5133745;28;20027;-79
2023/01/04 04:25:10;;;;;;;2.67;1.60;;;10.50;97.70;;;;;;5134553;28;20085;-77
2023/01/04 04:27:36;;;;;;;3.83;1.67;;;10.50;97.80;;;;;;5134723;28;20028;-79
2023/01/04 04:30:02;;;;;;;3.92;1.80;;;10.50;97.80;;;;;;5116714;28;20020;-79
2023/01/04 04:32:28;;;;;;;2.22;1.63;;;10.60;97.80;;;;;;5116629;28;20047;-79
2023/01/04 04:34:53;;;;;;;1.60;1.30;;;10.60;97.80;;;;;;5134375;28;20031;-79
2023/01/04 04:37:19;;;;;;;2.05;1.58;;;10.60;97.80;;;;;;5134517;28;20030;-79
2023/01/04 04:39:45;;;;;;;2.58;1.67;;;10.60;98.00;;;;;;5134395;28;20042;-79
2023/01/04 04:42:10;;;;;;;2.40;1.88;;;10.60;98.20;;;;;;5134404;28;20087;-78
2023/01/04 04:44:36;;;;;;;2.28;1.60;;;10.60;98.20;;;;;;5116627;28;20038;-78
2023/01/04 04:47:01;;;;;;;3.72;1.80;;;10.60;98.40;;;;;;5116399;28;20027;-79
2023/01/04 04:49:27;;;;;;;1.90;1.25;;;10.60;98.40;;;;;;5134300;28;20024;-78
2023/01/04 04:51:53;;;;;;;1.90;1.40;;;10.60;98.30;;;;;;5134291;28;20040;-79
2023/01/04 04:54:20;;;;;;;2.53;1.50;;;10.60;98.30;;;;;;5134281;28;20028;-80
2023/01/04 04:56:47;;;;;;;1.45;1.10;;;10.60;98.30;;;;;;5134293;28;20043;-79
2023/01/04 04:59:13;;;;;;;2.70;1.30;;;10.70;98.30;;;;;;5133285;28;20079;-79
2023/01/04 05:01:39;;;;;;;2.45;1.70;;;10.70;98.40;;;;;;5134187;28;20079;-78
2023/01/04 05:04:05;;;;;;;1.80;1.20;;;10.60;98.30;;;;;;5134147;28;20024;-77
2023/01/04 05:06:31;;;;;;;1.70;1.13;;;10.70;98.40;;;;;;5134138;28;20035;-78
2023/01/04 05:08:56;;;;;;;3.25;1.77;;;10.70;98.40;;;;;;5134048;28;20024;-79
2023/01/04 05:14:06;;;;;;;3.17;2.03;;;10.70;98.30;;;;;;5133930;28;20066;-78
2023/01/04 05:16:32;;;;;;;4.75;2.05;;;10.70;98.30;;;;;;5134025;28;20020;-79
2023/01/04 05:18:57;;;;;;;3.20;2.05;;;10.70;98.40;;;;;;5133025;28;20031;-79
2023/01/04 05:21:23;;;;;;;4.15;2.30;;;10.80;98.40;;;;;;5132936;28;20034;-79
2023/01/04 05:23:48;;;;;;;2.10;1.58;;;10.80;98.30;;;;;;5132934;28;20058;-79
2023/01/04 05:26:14;;;;;;;3.83;2.30;;;10.80;98.30;;;;;;5115762;28;20052;-79
2023/01/04 05:28:40;;;;;;;3.63;1.90;;;10.90;98.30;;;;;;5132938;28;20043;-79
2023/01/04 05:31:05;;;;;;;2.47;1.90;;;10.90;98.20;;;;;;5116073;28;20085;-79
2023/01/04 05:33:31;;;;;;;3.65;2.53;;;10.90;98.30;;;;;;5133798;28;20055;-79
2023/01/04 05:35:59;;;;;;;3.92;2.38;;;10.90;98.20;;;;;;5133808;28;20032;-79
2023/01/04 05:38:26;;;;;;;3.63;2.30;;;10.90;98.20;;;;;;5133960;28;20083;-79
2023/01/04 05:40:52;;;;;;;5.32;2.15;;;11.00;98.20;;;;;;5115791;28;20028;-78
2023/01/04 05:43:19;;;;;;;4.30;2.58;;;11.00;98.50;;;;;;5133751;28;20027;-79
2023/01/04 05:45:56;;;;;;;5.88;2.53;;;11.00;98.30;;;;;;5133707;28;20020;-78
2023/01/04 05:48:23;;;;;;;3.70;2.38;;;11.00;98.40;;;;;;5132626;28;20028;-79
2023/01/04 05:50:48;;;;;;;3.55;2.20;;;11.00;98.40;;;;;;5133840;28;20024;-79
2023/01/04 05:53:17;;;;;;;3.50;2.28;;;11.00;98.30;;;;;;5133628;28;20046;-79
2023/01/04 05:55:43;;;;;;;3.50;2.17;;;11.00;98.20;;;;;;5133665;28;20498;-79
2023/01/04 05:58:09;;;;;;;3.90;2.33;;;11.10;98.20;;;;;;5132669;28;20032;-79
2023/01/04 06:00:35;;;;;;;4.10;2.40;;;11.00;98.40;;;;;;5132782;28;20092;-79
2023/01/04 06:03:01;;;;;;;4.15;2.40;;;11.00;98.50;;;;;;5133570;28;20035;-78
2023/01/04 06:05:26;;;;;;;4.70;2.45;;;11.10;98.70;;;;;;5133500;28;20028;-79
2023/01/04 06:07:52;;;;;;;3.55;2.20;;;11.10;98.80;;;;;;5098571;28;20073;-78
2023/01/04 06:10:18;;;;;;;4.00;2.55;;;11.10;98.90;;;;;;5132546;28;20057;-79
2023/01/04 06:12:45;;;;;;;3.65;2.13;;;11.10;99.00;;;;;;5133441;28;20020;-79
2023/01/04 06:15:11;;;;;;;5.85;2.30;;;11.10;99.10;;;;;;5132410;28;20032;-79
2023/01/04 06:17:38;;;;;;;3.92;2.47;;;11.10;99.20;;;;;;5133467;28;20043;-78
2023/01/04 06:20:06;;;;;;;3.10;1.98;;;11.10;99.10;;;;;;5133332;28;20095;-80
2023/01/04 06:22:32;;;;;;;3.78;1.58;;;11.10;99.00;;;;;;5133304;28;20024;-79
2023/01/04 06:24:58;;;;;;;4.57;2.13;;;11.10;98.90;;;;;;5133413;28;20107;-79
2023/01/04 06:27:24;;;;;;;4.10;2.28;;;11.20;98.80;;;;;;5135881;28;20052;-79
2023/01/04 06:29:50;;;;;;;5.35;2.60;;;11.20;98.70;;;;;;5136079;28;20050;-79
2023/01/04 06:32:16;;;;;;;4.70;2.22;;;11.20;98.70;;;;;;5136074;28;20028;-79
2023/01/04 06:34:41;;;;;;;2.95;1.95;;;11.30;98.70;;;;;;5136926;28;20042;-79
2023/01/04 06:37:08;;;;;;;3.53;2.22;;;11.30;98.80;;;;;;5137015;28;20035;-78
2023/01/04 06:39:34;;;;;;;3.58;1.83;;;11.30;99.00;;;;;;5135920;28;20091;-79
2023/01/04 06:42:00;;;;;;;2.90;2.30;;;11.30;99.00;;;;;;5136776;28;20027;-78
2023/01/04 06:44:25;;;;;;;4.35;1.50;;;11.30;99.00;;;;;;5136734;28;20032;-78
2023/01/04 06:46:51;;;;;;;4.03;2.25;;;11.30;99.00;;;;;;5136670;28;20019;-79
2023/01/04 06:49:16;;;;;;;3.85;2.28;;;11.30;98.90;;;;;;5136668;28;20043;-78
2023/01/04 06:51:42;;;;;;;2.28;1.67;;;11.30;98.90;;;;;;5135660;28;20027;-78
2023/01/04 06:54:10;;;;;;;2.47;1.70;;;11.30;98.90;;;;;;5135641;28;20032;-78
2023/01/04 06:56:36;;;;;;;4.38;1.75;;;11.30;99.00;;;;;;5135604;28;20047;-78
2023/01/04 06:59:02;;;;;;;2.63;1.33;;;11.30;99.00;;;;;;5136432;28;20024;-78
2023/01/04 07:01:27;;;;;;;2.20;1.63;;;11.30;99.10;;;;;;5136312;28;20028;-79
2023/01/04 07:03:53;;;;;;;2.70;1.55;;;11.30;99.10;;;;;;5136354;28;20513;-79
2023/01/04 07:06:18;;;;;;;4.15;1.92;;;11.40;99.00;;;;;;5135394;28;20105;-79
2023/01/04 07:08:44;;;;;;;3.10;1.95;;;11.40;99.00;;;;;;5136188;28;20024;-80
2023/01/04 07:11:10;;;;;;;2.75;1.90;;;11.40;98.90;;;;;;5135148;28;20042;-80
2023/01/04 07:13:35;;;;;;;2.72;1.65;;;11.40;98.80;;;;;;5135234;28;20027;-80
2023/01/04 07:16:01;;;;;;;2.38;1.67;;;11.50;98.70;;;;;;5136156;28;20085;-79
2023/01/04 07:18:26;;;;;;;2.10;1.52;;;11.50;98.60;;;;;;5136101;28;20027;-80
2023/01/04 07:20:52;;;;;;;2.85;1.80;;;11.50;98.50;;;;;;5135956;28;20031;-80
2023/01/04 07:23:18;;;;;;;3.58;1.63;;;11.50;98.40;;;;;;5118019;28;20033;-80
2023/01/04 07:25:43;;;;;;;4.05;1.67;;;11.60;98.30;;;;;;5134696;28;20048;-81
2023/01/04 07:28:09;;;;;;;2.63;1.50;;;11.60;98.10;;;;;;5134852;28;20020;-80
2023/01/04 07:30:34;;;;;;;1.33;1.00;;;11.60;98.00;;;;;;5134849;28;20499;-79
2023/01/04 07:33:00;;;;;;;2.63;1.20;;;11.60;97.90;;;;;;5135678;28;20027;-79
2023/01/04 07:35:26;;;;;;;2.80;1.63;;;11.60;97.90;;;;;;5100827;28;20449;-80
2023/01/04 07:37:51;;;;;;;1.80;1.10;;;11.70;97.80;;;;;;5134378;28;20032;-80
2023/01/04 07:40:17;;;;;;;1.73;1.15;;;11.70;97.70;;;;;;5135548;28;20039;-80
2023/01/04 07:42:43;;;;;;;2.15;1.10;;;11.70;97.70;;;;;;5135607;28;20023;-80
2023/01/04 07:45:09;;;;;;;2.70;1.17;;;11.70;97.60;;;;;;5100548;28;20028;-80
2023/01/04 07:47:34;;;;;;;2.40;1.20;;;11.80;97.40;;;;;;5135452;28;20058;-79
2023/01/04 07:50:00;;;;;;;1.42;0.65;;;11.80;97.10;;;;;;5135421;28;20028;-79
2023/01/04 07:52:26;;;;;;;4.78;0.93;;;11.90;97.10;;;;;;5134361;28;20055;-79
2023/01/04 07:54:52;;;;;;;1.83;1.33;;;11.90;96.90;;;;;;5117193;28;20077;-79
2023/01/04 07:57:18;;;;;;;1.00;0.85;;;11.90;96.70;;;;;;5135318;28;20035;-79
2023/01/04 07:59:43;;;;;;;1.45;1.35;;;12.00;96.60;;;;;;5135164;28;20047;-79
2023/01/04 08:02:10;;;;;;;2.67;1.20;;;12.00;96.50;;;;;;5134191;28;20027;-80
2023/01/04 08:04:36;;;;;;;2.53;0.90;;;12.00;96.60;;;;;;5135353;28;20020;-79
2023/01/04 08:07:02;;;;;;;1.40;0.90;;;11.90;96.60;;;;;;5134167;28;20035;-80
2023/01/04 08:09:28;;;;;;;1.35;0.80;;;12.00;96.50;;;;;;5134130;28;20027;-79
2023/01/04 08:12:01;;;;;;;0.50;0.47;;;11.90;96.50;;;;;;5135556;28;20031;-78
2023/01/04 08:14:58;;;;;;;1.73;1.13;;;12.00;96.30;;;;;;5118516;28;20054;-80
2023/01/04 08:17:24;;;;;;;1.40;0.98;;;12.00;96.20;;;;;;5134142;28;20374;-80
2023/01/04 08:20:32;;;;;;;3.45;0.80;;;12.00;96.10;;;;;;5133853;28;20023;-80
2023/01/04 08:22:58;;;;;;;1.70;0.60;;;12.00;96.00;;;;;;5123446;28;20032;-79
2023/01/04 08:25:24;;;;;;;1.35;0.95;;;12.10;96.10;;;;;;5133503;28;20071;-79
2023/01/04 08:27:49;;;;;;;1.20;0.70;;;12.10;96.10;;;;;;5133651;28;20027;-80
2023/01/04 08:30:15;;;;;;;1.75;0.52;;;12.10;96.00;;;;;;5134613;28;20027;-79
2023/01/04 08:32:41;;;;;;;1.52;0.70;;;12.20;95.90;;;;;;5133706;28;20063;-80
2023/01/04 08:35:07;;;;;;;2.65;0.80;;;12.20;95.80;;;;;;5133753;28;20039;-80
2023/01/04 08:37:34;;;;;;;2.83;0.77;;;12.30;95.60;;;;;;5099736;28;20106;-80
2023/01/04 08:39:59;;;;;;;3.33;1.10;;;12.30;95.40;;;;;;5116647;28;20036;-79
2023/01/04 08:42:25;;;;;;;1.67;0.88;;;12.30;95.50;;;;;;5133537;28;20053;-81
2023/01/04 08:44:51;;;;;;;0.70;0.50;;;12.30;95.40;;;;;;5116460;28;20088;-82
2023/01/04 08:47:16;;;;;;;2.22;0.82;;;12.40;95.20;;;;;;5133393;28;20092;-80
2023/01/04 08:49:42;;;;;;;1.20;0.60;;;12.40;95.20;;;;;;5132720;28;20030;-81
2023/01/04 08:52:08;;;;;;;2.13;0.70;;;12.40;95.10;;;;;;5134303;28;20052;-80
2023/01/04 08:54:34;;;;;;;1.35;0.80;;;12.50;95.10;;;;;;5134341;28;20024;-80
2023/01/04 08:56:59;;;;;;;1.05;0.52;;;12.50;95.10;;;;;;5133330;28;20087;-80
2023/01/04 08:59:25;;;;;;;3.00;0.90;;;12.50;94.90;;;;;;5133192;28;20110;-81
2023/01/04 09:01:51;;;;;;;2.70;1.13;;;12.50;94.90;;;;;;5133250;28;20019;-77
2023/01/04 09:04:16;;;;;;;3.33;0.88;;;12.60;94.80;;;;;;5134105;28;20081;-78
2023/01/04 09:06:42;;;;;;;3.67;0.93;;;12.60;94.90;;;;;;5134067;28;20032;-80
2023/01/04 09:09:07;;;;;;;3.65;0.85;;;12.60;95.00;;;;;;5133966;28;20031;-78
2023/01/04 09:11:34;;;;;;;4.85;0.70;;;12.60;94.80;;;;;;5133062;28;20032;-80
2023/01/04 09:14:00;;;;;;;1.95;0.85;;;12.60;94.80;;;;;;5132989;28;20054;-79
2023/01/04 09:16:26;;;;;;;3.80;1.10;;;12.60;94.80;;;;;;5132984;28;20027;-79
2023/01/04 09:18:51;;;;;;;1.88;0.80;;;12.60;94.80;;;;;;5116084;28;20028;-79
2023/01/04 09:21:20;;;;;;;1.85;0.63;;;12.70;94.60;;;;;;5132987;28;20042;-79
2023/01/04 09:23:46;;;;;;;3.90;0.85;;;12.70;94.60;;;;;;5133922;28;20019;-79
2023/01/04 09:26:22;;;;;;;0.73;0.50;;;12.70;94.50;;;;;;5133766;28;20074;-80
2023/01/04 09:28:49;;;;;;;0.57;0.47;;;12.70;94.40;;;;;;5133884;28;20019;-80
2023/01/04 09:31:18;;;;;;;1.48;0.70;;;12.70;94.50;;;;;;5133866;28;20079;-79
2023/01/04 09:33:44;;;;;;;1.58;0.77;;;12.70;94.50;;;;;;5133809;28;20049;-80
2023/01/04 09:36:14;;;;;;;3.92;1.30;;;12.70;94.70;;;;;;5132831;28;20050;-81
2023/01/04 09:38:39;;;;;;;1.25;0.90;;;12.70;94.70;;;;;;5133873;28;20027;-80
2023/01/04 09:41:05;;;;;;;1.65;0.90;;;12.70;94.70;;;;;;5115659;28;20035;-80
2023/01/04 09:43:48;;;;;;;2.58;1.00;;;12.70;94.60;;;;;;5132709;28;20023;-81
2023/01/04 09:46:23;;;;;;;1.60;0.90;;;12.70;94.80;;;;;;5132918;28;20027;-82
2023/01/04 09:48:52;;;;;;;2.90;1.10;;;12.80;94.90;;;;;;5132691;28;20030;-80
2023/01/04 09:51:20;;;;;;;3.10;0.60;;;12.70;95.10;;;;;;5133636;28;20062;-79
2023/01/04 09:54:15;;;;;;;2.17;0.70;;;12.70;95.20;;;;;;5133623;28;20023;-79
2023/01/04 09:56:48;;;;;;;3.38;0.73;;;12.70;95.40;;;;;;5130807;28;20035;-80
2023/01/04 09:59:16;;;;;;;1.50;0.82;;;12.70;95.40;;;;;;5133142;28;20028;-77
2023/01/04 10:01:54;;;;;;;3.92;1.25;;;12.70;95.60;;;;;;5137497;28;20020;-78
2023/01/04 10:04:41;;;;;;;1.52;0.70;;;12.70;96.00;;;;;;5136539;28;20493;-78
2023/01/04 10:07:27;;;;;;;1.27;0.70;;;12.60;96.10;;;;;;5137469;28;20030;-77
2023/01/04 10:09:56;;;;;;;2.35;0.70;;;12.60;96.40;;;;;;5137673;28;20023;-79
2023/01/04 10:12:45;;;;;;;2.40;1.33;;;12.70;96.50;;;;;;5136648;28;20055;-77
2023/01/04 10:15:37;;;;;;;2.25;0.82;;;12.70;96.50;;;;;;5136784;28;20024;-78
2023/01/04 10:18:38;;;;;;;2.90;1.45;;;12.70;96.30;;;;;;5137781;28;20035;-79
2023/01/04 10:21:27;;;;;;;3.17;1.52;;;12.60;96.50;;;;;;5136106;28;20032;-78
2023/01/04 10:23:59;;;;;;;2.70;1.92;;;12.60;96.70;;;;;;5137227;28;20040;-79
2023/01/04 10:26:35;;;;;;;3.92;1.10;;;12.60;96.70;;;;;;5135928;28;20089;-79
2023/01/04 10:29:25;;;;;;;3.58;1.70;;;12.60;96.80;;;;;;5136097;28;20033;-78
2023/01/04 10:32:20;;;;;;;1.90;1.52;;;12.60;97.00;;;;;;5137156;28;20049;-78
2023/01/04 10:34:47;;;;;;;6.63;3.47;;;12.60;97.20;;;;;;5127407;28;20040;-78
2023/01/04 10:37:36;;;;;;;2.45;1.73;;;12.60;97.30;;;;;;5136884;28;20024;-77
2023/01/04 10:40:10;;;;;;;2.85;1.48;;;12.60;97.30;;;;;;5123030;28;20064;-77
2023/01/04 10:42:48;;;;;;;2.78;1.85;;;12.60;97.40;;;;;;5136919;28;20023;-79
2023/01/04 10:45:38;;;;;;;1.02;0.93;;;12.60;97.50;;;;;;5137594;28;20030;-77
2023/01/04 10:52:01;;;;;;;3.42;1.38;;;12.50;97.70;;;;;;5116296;28;20032;-75
2023/01/04 10:54:34;;;;;;;4.97;1.60;;;12.50;97.80;;;;;;5136024;28;20031;-75
2023/01/04 10:57:06;;;;;;;2.33;1.13;;;12.60;97.90;;;;;;5136519;28;20020;-79
2023/01/04 11:00:00;;;;;;;1.70;1.17;;;12.60;98.00;;;;;;5134424;28;20012;-79
2023/01/04 11:02:43;;;;;;;2.17;1.23;;;12.60;97.90;;;;;;5135686;28;20083;-78
2023/01/04 11:05:23;;;;;;;3.70;1.20;;;12.50;98.00;;;;;;5135637;28;20026;-78
2023/01/04 11:07:49;;;;;;;2.28;0.80;;;12.60;97.90;;;;;;5136424;28;20026;-79
2023/01/04 11:10:30;;;;;;;4.25;1.70;;;12.50;98.00;;;;;;5136343;28;20079;-79
2023/01/04 11:12:57;;;;;;;2.20;1.15;;;12.60;98.10;;;;;;5133543;28;20042;-78
2023/01/04 11:15:22;;;;;;;3.47;1.20;;;12.50;98.10;;;;;;5133009;28;20047;-78
2023/01/04 11:17:49;;;;;;;3.85;1.20;;;12.60;98.00;;;;;;5133977;28;20057;-78
2023/01/04 11:20:15;;;;;;;3.13;1.33;;;12.60;98.10;;;;;;5133833;28;20023;-79
2023/01/04 11:22:57;;;;;;;2.28;1.55;;;12.60;98.10;;;;;;5133873;28;20047;-78
2023/01/04 11:25:24;;;;;;;2.10;1.20;;;12.60;97.90;;;;;;5133769;28;20020;-78
2023/01/04 11:27:56;;;;;;;1.67;0.70;;;12.70;98.30;;;;;;5135797;28;20026;-79
2023/01/04 11:30:26;;;;;;;2.17;1.30;;;12.60;98.00;;;;;;5135901;28;20467;-79
2023/01/04 11:32:51;;;;;;;4.93;2.78;;;12.60;98.10;;;;;;5135936;28;20016;-80
2023/01/04 11:35:35;;;;;;;1.30;1.00;;;12.60;98.10;;;;;;5135805;28;20031;-79
2023/01/04 11:38:28;;;;;;;2.72;1.00;;;12.70;98.10;;;;;;5134787;28;20027;-79
2023/01/04 11:41:06;;;;;;;1.25;0.90;;;12.60;98.40;;;;;;5132613;28;20039;-79
2023/01/04 11:43:37;;;;;;;1.30;1.20;;;12.70;98.10;;;;;;5135657;28;20027;-79
2023/01/04 11:46:18;;;;;;;1.63;0.90;;;12.70;98.10;;;;;;5134583;28;20376;-79
2023/01/04 11:48:45;;;;;;;1.52;0.73;;;12.70;98.10;;;;;;5134747;28;20028;-78
2023/01/04 11:51:25;;;;;;;1.38;0.80;;;12.70;98.20;;;;;;5135489;28;20031;-79
2023/01/04 11:54:18;;;;;;;1.90;0.80;;;12.70;98.20;;;;;;5135416;28;20098;-77
2023/01/04 11:57:05;;;;;;;0.80;0.80;;;12.70;98.20;;;;;;5132572;28;20095;-78
2023/01/04 11:59:30;;;;;;;0.82;0.47;;;12.70;98.20;;;;;;5135296;28;20084;-79
2023/01/04 12:02:19;;;;;;;1.25;0.70;;;12.70;98.30;;;;;;5135293;28;20049;-77
2023/01/04 12:04:45;;;;;;;1.60;0.85;;;12.70;98.10;;;;;;5135233;28;20024;-77
2023/01/04 12:07:32;;;;;;;1.75;0.57;;;12.70;98.10;;;;;;5135185;28;20020;-77
2023/01/04 12:10:00;;;;;;;0.65;0.65;;;12.60;98.10;;;;;;5135156;28;20028;-77
2023/01/04 12:12:34;;;;;;;1.17;0.68;;;12.70;98.20;;;;;;5135096;28;20028;-78
2023/01/04 12:15:06;;;;;;;0.82;0.60;;;12.70;98.20;;;;;;5135033;28;20049;-78
2023/01/04 12:17:58;;;;;;;1.02;0.63;;;12.70;98.40;;;;;;5134953;28;20028;-78
2023/01/04 12:20:27;;;;;;;0.60;0.45;;;12.60;98.30;;;;;;5120420;28;20038;-78
2023/01/04 12:22:53;;;;;;;1.10;0.70;;;12.60;98.60;;;;;;5134008;28;20111;-79
2023/01/04 12:25:34;;;;;;;1.50;0.95;;;12.60;98.60;;;;;;5133588;28;20012;-78
2023/01/04 12:27:59;;;;;;;1.25;0.85;;;12.70;98.60;;;;;;5134796;28;20099;-78
2023/01/04 12:30:45;;;;;;;0.52;0.50;;;12.70;98.50;;;;;;5134718;28;20032;-79
2023/01/04 12:33:29;;;;;;;0.35;0.22;;;12.70;98.50;;;;;;5134878;28;20020;-79
2023/01/04 12:36:01;;;;;;;0.63;0.32;;;12.70;98.40;;;;;;5134604;28;20034;-79
2023/01/04 12:38:45;;;;;;;0.82;0.82;;;12.70;98.40;;;;;;5134623;28;20070;-79
2023/01/04 12:41:11;;;;;;;1.08;0.70;;;12.70;98.40;;;;;;5133388;28;20031;-79
2023/01/04 12:43:37;;;;;;;1.35;1.00;;;12.70;98.20;;;;;;5133513;28;20035;-79
2023/01/04 12:49:26;;;;;;;3.33;1.20;;;12.80;98.20;;;;;;5134684;28;20034;-78
2023/01/04 12:52:17;;;;;;;1.05;0.80;;;12.80;98.10;;;;;;5134345;28;20019;-79
2023/01/04 12:54:50;;;;;;;0.40;0.40;;;12.80;97.90;;;;;;5124237;28;20069;-79
2023/01/04 12:57:15;;;;;;;1.30;0.90;;;12.80;97.90;;;;;;5134472;28;20020;-79
2023/01/04 13:00:19;;;;;;;1.35;0.70;;;12.80;97.70;;;;;;5133137;28;20062;-79
2023/01/04 13:03:13;;;;;;;1.20;1.10;;;12.90;97.70;;;;;;5035116;28;20038;-79
2023/01/04 13:05:41;;;;;;;2.08;1.00;;;12.90;97.70;;;;;;5051432;28;20097;-79
2023/01/04 13:08:13;;;;;;;1.50;0.77;;;12.90;97.70;;;;;;5100333;28;20551;-78
2023/01/04 13:10:41;;;;;;;;;;;13.00;97.50;;;;;;5133456;28;20099;-77
2023/01/04 13:13:06;;;;;;;1.63;1.25;;;13.00;97.10;;;;;;5134101;28;19925;-77
2023/01/04 13:15:58;;;;;;;2.05;1.77;;;13.00;97.30;;;;;;5134021;28;20032;-75
2023/01/04 13:18:34;;;;;;;2.08;1.35;;;13.00;97.30;;;;;;5134050;28;20029;-76
2023/01/04 13:21:08;;;;;;;1.13;0.65;;;13.00;97.30;;;;;;5133993;28;20041;-77
2023/01/04 13:23:34;;;;;;;1.40;1.30;;;13.00;97.20;;;;;;5134033;28;20019;-77
2023/01/04 13:26:28;;;;;;;1.25;1.10;;;13.00;97.10;;;;;;5115799;28;20056;-77
2023/01/04 13:29:14;;;;;;;1.52;0.98;;;13.10;97.00;;;;;;5133879;28;20031;-77
2023/01/04 13:31:48;;;;;;;1.33;0.95;;;13.10;96.90;;;;;;5132779;28;20027;-77
2023/01/04 13:34:30;;;;;;;1.08;0.90;;;13.10;96.90;;;;;;5133292;28;20028;-77
2023/01/04 13:37:12;;;;;;;1.00;0.70;;;13.10;96.70;;;;;;5138155;28;20031;-77
2023/01/04 13:39:50;;;;;;;1.25;0.77;;;13.10;96.70;;;;;;5138027;28;20069;-77
2023/01/04 13:42:18;;;;;;;1.83;0.75;;;13.10;96.70;;;;;;5138202;28;20023;-77
2023/01/04 13:44:54;;;;;;;1.05;0.82;;;13.10;96.70;;;;;;5138074;28;20079;-77
2023/01/04 13:47:20;;;;;;;1.75;0.88;;;13.10;96.80;;;;;;5138062;28;20027;-77
2023/01/04 13:49:45;;;;;;;1.30;0.80;;;13.10;96.70;;;;;;5119987;28;20020;-77
2023/01/04 13:52:29;;;;;;;1.25;0.75;;;13.10;96.70;;;;;;5137826;28;20035;-77
2023/01/04 13:55:21;;;;;;;1.67;1.27;;;13.10;96.60;;;;;;5137770;28;20024;-77
2023/01/04 13:58:16;;;;;;;2.35;1.60;;;13.10;96.60;;;;;;5137777;28;20026;-77
2023/01/04 14:00:56;;;;;;;1.20;1.02;;;13.10;96.60;;;;;;5137631;28;20024;-78
2023/01/04 14:03:33;;;;;;;1.48;1.17;;;13.10;96.50;;;;;;5136692;28;20020;-77